Time;durP1;ratioP1;P1;durP2;ratioP2;P2;SDS_P1;SDS_P2;PMS_P1;PMS_P2;Temp;Humidity;BMP_temperature;BMP_pressure;BME280_temperature;BME280_humidity;BME280_pressure;Samples;Min_cycle;Max_cycle;Signal;HPM_P1;HPM_P2
2021/03/08 00:02:24;;;;;;;38.92;18.77;;;2.80;99.90;;;;;;5041631;28;20029;-74
2021/03/08 00:04:49;;;;;;;42.13;19.23;;;2.90;99.90;;;;;;5060941;28;20036;-74
2021/03/08 00:07:15;;;;;;;40.50;18.10;;;2.80;99.90;;;;;;5058426;28;20048;-74
2021/03/08 00:09:41;;;;;;;38.13;17.83;;;2.80;99.90;;;;;;5043311;28;20025;-74
2021/03/08 00:12:08;;;;;;;37.35;17.63;;;2.90;99.90;;;;;;5058035;28;20082;-74
2021/03/08 00:14:34;;;;;;;35.47;17.52;;;2.80;99.90;;;;;;5056217;28;20493;-73
2021/03/08 00:17:00;;;;;;;34.88;17.73;;;2.80;99.90;;;;;;5059022;28;20032;-74
2021/03/08 00:19:26;;;;;;;36.92;16.65;;;2.80;99.90;;;;;;5030743;28;20094;-75
2021/03/08 00:21:52;;;;;;;36.88;17.42;;;2.80;99.90;;;;;;5042239;28;20036;-74
2021/03/08 00:24:18;;;;;;;33.88;15.80;;;2.80;99.90;;;;;;5060304;28;20097;-75
2021/03/08 00:26:44;;;;;;;33.60;15.98;;;2.80;99.90;;;;;;5041768;28;20038;-75
2021/03/08 00:29:10;;;;;;;32.88;15.70;;;2.80;99.90;;;;;;5059385;28;20483;-75
2021/03/08 00:31:35;;;;;;;34.10;15.65;;;2.70;99.90;;;;;;5041725;28;20024;-75
2021/03/08 00:34:01;;;;;;;33.80;15.32;;;2.90;99.90;;;;;;5057647;28;20036;-75
2021/03/08 00:36:27;;;;;;;32.20;15.45;;;2.90;99.90;;;;;;5038501;28;20041;-75
2021/03/08 00:38:52;;;;;;;31.45;14.82;;;2.90;99.90;;;;;;5058179;28;20043;-75
2021/03/08 00:41:18;;;;;;;32.45;15.68;;;2.90;99.90;;;;;;5059107;28;20036;-75
2021/03/08 00:43:44;;;;;;;30.23;14.60;;;3.00;99.90;;;;;;5052684;28;20393;-75
2021/03/08 00:46:09;;;;;;;33.75;15.35;;;2.90;99.90;;;;;;5037434;28;20029;-75
2021/03/08 00:48:35;;;;;;;28.33;13.93;;;2.90;99.90;;;;;;5056992;28;20033;-75
2021/03/08 00:51:01;;;;;;;28.63;13.90;;;2.90;99.90;;;;;;5047202;28;20508;-75
2021/03/08 00:53:27;;;;;;;29.05;13.70;;;3.00;99.90;;;;;;5031724;28;20048;-75
2021/03/08 00:55:53;;;;;;;30.23;14.63;;;2.90;99.90;;;;;;5020513;28;20071;-75
2021/03/08 00:58:19;;;;;;;29.83;13.85;;;2.80;99.90;;;;;;5032557;28;20037;-75
2021/03/08 01:00:46;;;;;;;27.10;12.85;;;2.80;99.90;;;;;;5024506;28;20583;-75
2021/03/08 01:03:12;;;;;;;28.98;13.93;;;2.80;99.90;;;;;;5032303;28;20124;-75
2021/03/08 01:05:43;;;;;;;29.13;13.88;;;2.90;99.90;;;;;;5047981;28;20029;-75
2021/03/08 01:08:17;;;;;;;26.15;12.27;;;2.80;99.90;;;;;;5053926;28;20117;-75
2021/03/08 01:10:44;;;;;;;23.73;11.98;;;2.80;99.90;;;;;;5049021;28;20035;-75
2021/03/08 01:13:19;;;;;;;28.92;13.68;;;2.80;99.90;;;;;;5041872;28;20063;-75
2021/03/08 01:15:50;;;;;;;32.15;12.68;;;2.70;99.90;;;;;;5021046;28;20427;-75
2021/03/08 01:18:20;;;;;;;26.58;12.45;;;2.60;99.90;;;;;;5020015;28;20455;-75
2021/03/08 01:20:46;;;;;;;26.35;11.68;;;2.60;99.90;;;;;;5053345;28;20033;-75
2021/03/08 01:23:13;;;;;;;24.30;12.63;;;2.60;99.90;;;;;;5052038;28;20907;-75
2021/03/08 01:25:39;;;;;;;26.17;13.15;;;2.60;99.90;;;;;;5040153;28;20526;-74
2021/03/08 01:28:06;;;;;;;25.02;12.48;;;2.60;99.90;;;;;;5057280;28;20036;-75
2021/03/08 01:30:35;;;;;;;24.83;12.57;;;2.60;99.90;;;;;;5058490;28;20078;-74
2021/03/08 01:33:00;;;;;;;28.27;12.30;;;2.60;99.90;;;;;;5057999;28;20056;-74
2021/03/08 01:35:26;;;;;;;31.92;11.82;;;2.70;99.90;;;;;;5049918;28;20164;-75
2021/03/08 01:37:52;;;;;;;28.95;12.68;;;2.70;99.90;;;;;;5050135;28;20489;-75
2021/03/08 01:40:20;;;;;;;27.13;12.35;;;2.70;99.90;;;;;;5055423;28;20060;-75
2021/03/08 01:42:46;;;;;;;24.00;11.38;;;2.60;99.90;;;;;;5037731;28;20047;-75
2021/03/08 01:45:15;;;;;;;31.77;14.30;;;2.60;99.90;;;;;;5058297;28;20075;-74
2021/03/08 01:47:42;;;;;;;23.48;11.80;;;2.60;99.90;;;;;;5055033;28;20040;-74
2021/03/08 01:50:21;;;;;;;26.02;11.85;;;2.50;99.90;;;;;;5058412;28;20462;-74
2021/03/08 01:52:46;;;;;;;21.95;10.88;;;2.50;99.90;;;;;;5051565;28;20036;-74
2021/03/08 01:55:13;;;;;;;27.95;11.63;;;2.40;99.90;;;;;;5055967;28;20029;-74
2021/03/08 01:57:39;;;;;;;26.13;11.88;;;2.40;99.90;;;;;;5051727;28;20037;-74
2021/03/08 02:00:06;;;;;;;25.35;11.27;;;2.30;99.90;;;;;;5057731;28;20039;-74
2021/03/08 02:02:39;;;;;;;22.52;10.73;;;2.30;99.90;;;;;;5051906;28;20682;-74
2021/03/08 02:05:08;;;;;;;23.63;10.85;;;2.30;99.90;;;;;;5057507;28;20807;-74
2021/03/08 02:07:33;;;;;;;28.83;11.60;;;2.30;99.90;;;;;;5054939;28;20081;-74
2021/03/08 02:09:59;;;;;;;24.38;11.02;;;2.20;99.90;;;;;;5051482;28;20033;-74
2021/03/08 02:12:46;;;;;;;21.77;10.50;;;2.20;99.90;;;;;;5055881;28;20158;-74
2021/03/08 02:15:43;;;;;;;26.33;11.25;;;2.10;99.90;;;;;;5055278;28;20374;-74
2021/03/08 02:18:36;;;;;;;19.10;9.75;;;2.10;99.90;;;;;;5052566;28;20060;-74
2021/03/08 02:21:33;;;;;;;24.52;11.15;;;2.10;99.90;;;;;;5058137;28;20068;-74
2021/03/08 02:24:20;;;;;;;22.55;10.43;;;2.10;99.90;;;;;;5038618;28;20037;-74
2021/03/08 02:27:03;;;;;;;21.25;10.05;;;2.10;99.90;;;;;;5032901;28;20040;-74
2021/03/08 02:29:50;;;;;;;22.42;10.10;;;2.10;99.90;;;;;;5039444;28;20086;-74
2021/03/08 02:32:23;;;;;;;21.33;10.55;;;2.10;99.90;;;;;;5050602;28;20025;-74
2021/03/08 02:35:00;;;;;;;21.17;9.57;;;2.00;99.90;;;;;;5052675;28;20054;-74
2021/03/08 02:37:29;;;;;;;23.02;10.65;;;1.90;99.90;;;;;;5019973;28;20028;-74
2021/03/08 02:40:03;;;;;;;20.58;9.48;;;1.90;99.90;;;;;;5052108;28;20029;-74
2021/03/08 02:42:34;;;;;;;19.30;9.90;;;1.90;99.90;;;;;;5037313;28;20127;-74
2021/03/08 02:45:02;;;;;;;17.88;9.02;;;1.80;99.90;;;;;;5056783;28;20124;-74
2021/03/08 02:47:30;;;;;;;22.88;10.15;;;1.70;99.90;;;;;;5056266;28;20033;-74
2021/03/08 02:49:59;;;;;;;17.83;8.73;;;1.60;99.90;;;;;;5050564;28;20075;-74
2021/03/08 02:52:28;;;;;;;17.73;8.80;;;1.60;99.90;;;;;;5053436;28;20033;-74
2021/03/08 02:54:57;;;;;;;25.90;9.30;;;1.50;99.90;;;;;;5054040;28;20032;-74
2021/03/08 02:57:27;;;;;;;17.10;8.77;;;1.40;99.90;;;;;;5038907;28;20075;-75
2021/03/08 02:59:56;;;;;;;18.98;8.30;;;1.30;99.90;;;;;;5055947;28;20043;-74
2021/03/08 03:02:23;;;;;;;21.33;9.35;;;1.10;99.90;;;;;;5054101;28;20793;-74
2021/03/08 03:04:50;;;;;;;19.17;8.25;;;1.00;99.90;;;;;;5048168;28;20036;-74
2021/03/08 03:07:17;;;;;;;16.88;7.72;;;0.80;99.90;;;;;;5038053;28;20039;-74
2021/03/08 03:09:45;;;;;;;23.30;9.00;;;0.70;99.90;;;;;;5037900;28;20417;-74
2021/03/08 03:12:13;;;;;;;18.40;7.63;;;0.60;99.90;;;;;;5055974;28;20492;-74
2021/03/08 03:14:42;;;;;;;15.63;7.95;;;0.50;99.90;;;;;;5054300;28;20281;-74
2021/03/08 03:17:10;;;;;;;20.27;8.57;;;0.40;99.90;;;;;;5055960;28;20086;-74
2021/03/08 03:19:44;;;;;;;17.73;8.35;;;0.30;99.90;;;;;;5038190;28;20044;-74
2021/03/08 03:22:11;;;;;;;18.38;8.73;;;0.30;99.90;;;;;;5055591;28;20267;-74
2021/03/08 03:24:37;;;;;;;25.65;8.23;;;0.20;99.90;;;;;;5038158;28;20083;-74
2021/03/08 03:27:04;;;;;;;22.75;8.70;;;0.30;99.90;;;;;;5036765;28;20029;-74
2021/03/08 03:29:40;;;;;;;17.05;7.78;;;0.20;99.90;;;;;;5037666;28;20039;-74
2021/03/08 03:32:06;;;;;;;19.92;7.63;;;0.10;99.90;;;;;;5048851;28;20556;-74
2021/03/08 03:34:32;;;;;;;19.05;8.18;;;0.00;99.90;;;;;;5027663;28;20644;-74
2021/03/08 03:36:59;;;;;;;18.67;8.10;;;-0.10;99.90;;;;;;5016988;28;20047;-74
2021/03/08 03:39:25;;;;;;;16.90;7.20;;;-0.20;99.90;;;;;;5037058;28;20780;-74
2021/03/08 03:41:50;;;;;;;21.35;7.40;;;-0.20;99.90;;;;;;5037461;28;20037;-74
2021/03/08 03:44:16;;;;;;;18.65;7.18;;;-0.30;99.90;;;;;;5031776;28;20040;-74
2021/03/08 03:46:44;;;;;;;16.65;7.03;;;-0.40;99.90;;;;;;5049146;28;20020;-74
2021/03/08 03:49:17;;;;;;;18.45;7.00;;;-0.50;99.90;;;;;;5049847;28;20875;-74
2021/03/08 03:51:43;;;;;;;17.65;6.47;;;-0.50;99.90;;;;;;5055422;28;20056;-74
2021/03/08 03:54:10;;;;;;;15.40;6.93;;;-0.60;99.90;;;;;;5054545;28;20481;-74
2021/03/08 03:56:41;;;;;;;16.15;6.65;;;-0.60;99.90;;;;;;5054867;28;20036;-74
2021/03/08 03:59:41;;;;;;;18.75;6.70;;;-0.70;99.90;;;;;;5054994;28;20040;-74
2021/03/08 04:02:12;;;;;;;16.00;6.55;;;-0.70;99.90;;;;;;5055067;28;20047;-74
2021/03/08 04:04:45;;;;;;;13.65;6.55;;;-0.80;99.90;;;;;;5046516;28;20687;-74
2021/03/08 04:07:13;;;;;;;11.13;5.70;;;-0.80;99.90;;;;;;5036920;28;20476;-74
2021/03/08 04:09:43;;;;;;;18.17;6.50;;;-0.90;99.90;;;;;;5055853;28;20046;-74
2021/03/08 04:12:10;;;;;;;17.55;6.35;;;-0.90;99.90;;;;;;5044768;28;20591;-74
2021/03/08 04:14:37;;;;;;;14.73;6.22;;;-1.00;99.90;;;;;;5031313;28;20043;-74
2021/03/08 04:17:04;;;;;;;14.20;6.32;;;-1.00;99.90;;;;;;5056238;28;20029;-74
2021/03/08 04:19:32;;;;;;;14.60;6.68;;;-1.00;99.90;;;;;;5038415;28;20028;-74
2021/03/08 04:22:01;;;;;;;19.52;6.15;;;-1.00;99.90;;;;;;5056941;28;20032;-74
2021/03/08 04:24:29;;;;;;;15.38;6.40;;;-1.00;99.90;;;;;;5057209;28;20040;-74
2021/03/08 04:26:57;;;;;;;20.27;6.80;;;-1.00;99.90;;;;;;5038342;28;20037;-74
2021/03/08 04:29:23;;;;;;;15.93;5.53;;;-1.00;99.90;;;;;;5054587;28;20028;-75
2021/03/08 04:31:50;;;;;;;16.38;6.03;;;-1.00;99.90;;;;;;5050894;28;20039;-74
2021/03/08 04:34:17;;;;;;;15.95;6.07;;;-1.10;99.90;;;;;;5057660;28;20037;-74
2021/03/08 04:36:43;;;;;;;14.68;5.18;;;-1.10;99.90;;;;;;5056417;28;20044;-74
2021/03/08 04:39:13;;;;;;;16.10;5.43;;;-1.20;99.90;;;;;;5053534;28;20028;-74
2021/03/08 04:41:39;;;;;;;12.02;4.45;;;-1.20;99.90;;;;;;5053474;28;20047;-74
2021/03/08 04:44:08;;;;;;;9.18;4.32;;;-1.20;99.90;;;;;;5047189;28;21043;-74
2021/03/08 04:46:35;;;;;;;11.10;4.57;;;-1.20;99.90;;;;;;5046249;28;20037;-76
2021/03/08 04:49:01;;;;;;;8.52;4.22;;;-1.30;99.90;;;;;;5053605;28;20021;-75
2021/03/08 04:51:29;;;;;;;13.77;4.53;;;-1.30;99.90;;;;;;5026132;28;20029;-75
2021/03/08 04:53:56;;;;;;;15.07;4.25;;;-1.30;99.90;;;;;;5033443;28;20029;-75
2021/03/08 04:56:22;;;;;;;8.68;3.92;;;-1.40;99.90;;;;;;5045197;28;20040;-74
2021/03/08 04:58:48;;;;;;;18.60;4.03;;;-1.50;99.90;;;;;;5032751;28;20032;-75
2021/03/08 05:01:15;;;;;;;13.93;4.03;;;-1.50;99.90;;;;;;5046741;28;20035;-75
2021/03/08 05:03:42;;;;;;;9.45;4.05;;;-1.60;99.90;;;;;;5055496;28;20158;-74
2021/03/08 05:06:09;;;;;;;16.80;4.05;;;-1.60;99.90;;;;;;5055882;28;20775;-75
2021/03/08 05:08:39;;;;;;;17.10;4.85;;;-1.70;99.90;;;;;;5043722;28;20056;-74
2021/03/08 05:11:06;;;;;;;12.57;4.60;;;-1.70;99.90;;;;;;5045083;28;20036;-75
2021/03/08 05:13:35;;;;;;;13.57;4.72;;;-1.70;99.90;;;;;;5047414;28;20044;-75
2021/03/08 05:16:02;;;;;;;10.55;4.28;;;-1.80;99.90;;;;;;5058455;28;20697;-74
2021/03/08 05:18:29;;;;;;;15.40;4.35;;;-1.80;99.90;;;;;;5048447;28;20044;-75
2021/03/08 05:20:56;;;;;;;12.85;3.85;;;-1.90;99.90;;;;;;5035649;28;20212;-75
2021/03/08 05:23:23;;;;;;;12.30;3.42;;;-1.90;99.90;;;;;;5036620;28;20036;-74
2021/03/08 05:25:50;;;;;;;16.05;4.43;;;-2.00;99.90;;;;;;5054125;28;20046;-74
2021/03/08 05:28:17;;;;;;;11.23;3.80;;;-2.00;99.90;;;;;;5059132;28;20036;-75
2021/03/08 05:30:43;;;;;;;11.57;4.35;;;-2.00;99.90;;;;;;5046170;28;20037;-75
2021/03/08 05:33:22;;;;;;;9.75;4.10;;;-2.00;99.90;;;;;;5053856;28;20032;-77
2021/03/08 05:35:53;;;;;;;13.32;3.85;;;-2.10;99.90;;;;;;5039255;28;20118;-73
2021/03/08 05:38:24;;;;;;;11.55;4.15;;;-2.10;99.90;;;;;;5041743;28;20120;-73
2021/03/08 05:41:02;;;;;;;15.68;3.92;;;-2.10;99.90;;;;;;5036868;28;20047;-74
2021/03/08 05:43:30;;;;;;;11.38;4.10;;;-2.20;99.90;;;;;;5056056;28;20036;-74
2021/03/08 05:46:05;;;;;;;8.48;3.83;;;-2.20;99.90;;;;;;5031261;28;20032;-74
2021/03/08 05:48:54;;;;;;;14.70;4.07;;;-2.20;99.90;;;;;;5039676;28;20045;-73
2021/03/08 05:51:38;;;;;;;17.67;4.90;;;-2.20;99.90;;;;;;5052438;28;20028;-73
2021/03/08 05:54:04;;;;;;;15.75;4.30;;;-2.20;99.90;;;;;;5053099;28;20029;-74
2021/03/08 05:57:04;;;;;;;12.57;4.35;;;-2.20;99.90;;;;;;5057973;28;20024;-75
2021/03/08 05:59:54;;;;;;;14.48;5.18;;;-2.20;99.90;;;;;;5038635;28;20040;-75
2021/03/08 06:02:46;;;;;;;16.17;4.55;;;-2.10;99.90;;;;;;5054094;28;20078;-73
2021/03/08 06:05:50;;;;;;;16.60;5.32;;;-1.80;99.90;;;;;;5049187;28;20079;-73
2021/03/08 06:08:46;;;;;;;12.43;4.88;;;-1.70;99.90;;;;;;5051277;28;20037;-72
2021/03/08 06:11:14;;;;;;;14.65;4.30;;;-1.60;99.90;;;;;;5035223;28;20034;-73
2021/03/08 06:13:54;;;;;;;11.57;4.22;;;-1.60;99.90;;;;;;5042569;28;20036;-73
2021/03/08 06:16:34;;;;;;;13.75;4.65;;;-1.60;99.90;;;;;;5028328;28;20488;-73
2021/03/08 06:19:02;;;;;;;10.90;4.30;;;-1.50;99.90;;;;;;5032678;28;20049;-73
2021/03/08 06:21:31;;;;;;;15.25;4.40;;;-1.50;99.90;;;;;;5041048;28;20497;-73
2021/03/08 06:23:58;;;;;;;9.55;4.45;;;-1.50;99.90;;;;;;5037456;28;20032;-73
2021/03/08 06:26:25;;;;;;;19.42;4.70;;;-1.50;99.90;;;;;;5039680;28;20048;-73
2021/03/08 06:28:52;;;;;;;10.82;4.18;;;-1.50;99.90;;;;;;5044874;28;20037;-73
2021/03/08 06:31:19;;;;;;;22.67;4.97;;;-1.50;99.90;;;;;;5043148;28;20044;-73
2021/03/08 06:33:45;;;;;;;16.45;4.80;;;-1.50;99.90;;;;;;5055323;28;20583;-73
2021/03/08 06:36:12;;;;;;;10.30;4.40;;;-1.50;99.90;;;;;;5056315;28;20028;-73
2021/03/08 06:38:38;;;;;;;12.73;4.45;;;-1.50;99.90;;;;;;5058723;28;20066;-74
2021/03/08 06:41:06;;;;;;;17.85;4.82;;;-1.40;99.90;;;;;;5046363;28;20033;-74
2021/03/08 06:43:32;;;;;;;9.43;4.57;;;-1.30;99.90;;;;;;5038914;28;20037;-75
2021/03/08 06:45:58;;;;;;;14.38;4.50;;;-1.30;99.90;;;;;;5052526;28;20107;-75
2021/03/08 06:48:24;;;;;;;16.73;5.18;;;-1.30;99.90;;;;;;5049738;28;20097;-74
2021/03/08 06:51:16;;;;;;;20.13;5.32;;;-1.10;99.90;;;;;;5044643;28;20832;-73
2021/03/08 06:53:43;;;;;;;20.42;6.18;;;-1.00;99.90;;;;;;5025450;28;20032;-75
2021/03/08 06:56:22;;;;;;;20.00;6.43;;;-0.90;99.90;;;;;;5031170;28;20106;-75
2021/03/08 06:59:17;;;;;;;21.48;6.03;;;-0.70;99.90;;;;;;5030205;28;20063;-75
2021/03/08 07:01:44;;;;;;;15.25;5.85;;;-0.70;99.90;;;;;;5003615;28;20056;-75
2021/03/08 07:04:16;;;;;;;27.33;6.03;;;-0.60;99.90;;;;;;5049465;28;20040;-75
2021/03/08 07:06:56;;;;;;;19.75;5.00;;;-0.50;99.90;;;;;;5037645;28;20025;-75
2021/03/08 07:09:22;;;;;;;22.58;5.25;;;-0.50;99.90;;;;;;5043468;28;20119;-75
2021/03/08 07:12:07;;;;;;;15.07;4.93;;;-0.50;99.90;;;;;;5030242;28;20173;-75
2021/03/08 07:14:33;;;;;;;18.05;5.13;;;-0.40;99.90;;;;;;5047443;28;20037;-75
2021/03/08 07:16:59;;;;;;;17.13;5.07;;;-0.40;99.90;;;;;;5052636;28;20487;-75
2021/03/08 07:19:25;;;;;;;15.15;5.13;;;-0.30;99.90;;;;;;5038136;28;20040;-75
2021/03/08 07:21:51;;;;;;;11.40;4.50;;;-0.20;99.90;;;;;;5051439;28;20032;-74
2021/03/08 07:24:17;;;;;;;12.10;4.72;;;0.00;99.90;;;;;;5045799;28;20844;-75
2021/03/08 07:26:52;;;;;;;15.50;4.60;;;0.20;99.90;;;;;;5041159;28;20123;-75
2021/03/08 07:29:18;;;;;;;11.70;3.77;;;0.20;99.90;;;;;;5051495;28;20055;-75
2021/03/08 07:31:46;;;;;;;10.70;3.53;;;0.40;99.90;;;;;;5054905;28;20036;-74
2021/03/08 07:34:13;;;;;;;10.63;2.70;;;0.50;99.90;;;;;;5047885;28;20032;-74
2021/03/08 07:36:41;;;;;;;8.80;3.22;;;0.60;99.90;;;;;;5047493;28;20583;-74
2021/03/08 07:39:16;;;;;;;7.72;2.85;;;0.70;99.90;;;;;;5055820;28;20028;-74
2021/03/08 07:41:52;;;;;;;5.30;2.20;;;1.00;99.90;;;;;;5055767;28;20033;-74
2021/03/08 07:44:22;;;;;;;4.93;2.00;;;1.20;99.90;;;;;;5053010;28;20039;-74
2021/03/08 07:46:48;;;;;;;7.57;2.83;;;1.60;99.90;;;;;;5054964;28;20058;-74
2021/03/08 07:49:14;;;;;;;8.50;2.15;;;1.90;99.90;;;;;;5050651;28;20071;-74
2021/03/08 07:52:00;;;;;;;4.60;1.90;;;1.80;99.90;;;;;;5033975;28;20098;-75
2021/03/08 07:54:26;;;;;;;7.18;2.38;;;1.90;99.90;;;;;;5053057;28;20147;-74
2021/03/08 07:56:53;;;;;;;12.15;2.70;;;2.10;99.90;;;;;;5041213;28;20126;-74
2021/03/08 07:59:20;;;;;;;7.82;2.20;;;2.20;99.90;;;;;;5043986;28;20648;-74
2021/03/08 08:01:47;;;;;;;5.85;2.53;;;2.60;99.90;;;;;;5052599;28;20086;-73
2021/03/08 08:04:13;;;;;;;45.38;16.35;;;2.80;99.90;;;;;;5033426;28;20036;-73
2021/03/08 08:06:40;;;;;;;7.90;2.03;;;2.90;99.90;;;;;;5042034;28;20091;-73
2021/03/08 08:09:09;;;;;;;4.95;1.55;;;2.90;99.90;;;;;;5047497;28;20025;-73
2021/03/08 08:11:36;;;;;;;6.10;2.72;;;2.90;99.90;;;;;;5043308;28;20039;-73
2021/03/08 08:14:03;;;;;;;6.40;2.25;;;3.00;99.90;;;;;;5054482;28;20147;-73
2021/03/08 08:16:31;;;;;;;11.15;1.92;;;3.20;99.90;;;;;;5053904;28;20545;-73
2021/03/08 08:19:06;;;;;;;5.90;1.77;;;3.20;99.90;;;;;;5055151;28;20048;-73
2021/03/08 08:21:43;;;;;;;6.57;1.97;;;3.40;99.90;;;;;;5049534;28;20048;-74
2021/03/08 08:24:24;;;;;;;5.32;1.83;;;3.70;99.90;;;;;;5052528;28;20645;-73
2021/03/08 08:26:57;;;;;;;5.70;1.80;;;3.60;99.90;;;;;;5050318;28;20029;-73
2021/03/08 08:29:24;;;;;;;6.15;1.98;;;3.70;99.90;;;;;;5054876;28;20036;-73
2021/03/08 08:32:04;;;;;;;4.93;1.63;;;4.00;99.90;;;;;;5032863;28;20036;-74
2021/03/08 08:34:38;;;;;;;5.70;1.98;;;4.20;99.90;;;;;;5052622;28;20041;-73
2021/03/08 08:37:14;;;;;;;7.93;1.60;;;4.20;99.90;;;;;;5021442;28;20048;-73
2021/03/08 08:39:44;;;;;;;7.15;1.52;;;4.20;99.90;;;;;;5053740;28;20040;-73
2021/03/08 08:42:15;;;;;;;6.65;1.83;;;4.30;99.90;;;;;;5047904;28;20033;-71
2021/03/08 08:44:42;;;;;;;3.80;1.40;;;4.40;99.90;;;;;;5059723;28;20586;-71
2021/03/08 08:47:35;;;;;;;6.20;1.85;;;4.50;99.90;;;;;;5060125;28;20480;-71
2021/03/08 08:50:06;;;;;;;4.50;1.48;;;4.50;99.90;;;;;;5037429;28;20038;-71
2021/03/08 08:52:52;;;;;;;5.65;1.30;;;4.60;99.90;;;;;;5061154;28;20037;-71
2021/03/08 08:55:42;;;;;;;2.08;1.10;;;4.90;99.90;;;;;;5059900;28;20056;-71
2021/03/08 08:58:30;;;;;;;5.35;1.63;;;4.70;99.90;;;;;;5059302;28;20036;-71
2021/03/08 09:04:01;;;;;;;4.28;1.70;;;5.10;99.90;;;;;;5058453;28;20066;-72
2021/03/08 09:06:59;;;;;;;6.63;1.75;;;5.20;99.90;;;;;;5030760;28;20134;-72
2021/03/08 09:09:31;;;;;;;4.32;1.55;;;5.20;99.90;;;;;;5055963;28;20067;-72
2021/03/08 09:12:02;;;;;;;5.68;1.40;;;5.50;99.90;;;;;;5056278;28;20050;-71
2021/03/08 09:14:52;;;;;;;4.43;1.45;;;5.40;99.90;;;;;;5040000;28;20033;-72
2021/03/08 09:17:28;;;;;;;3.05;1.45;;;5.30;99.90;;;;;;5054873;28;20063;-72
2021/03/08 09:19:57;;;;;;;6.47;1.50;;;5.70;99.90;;;;;;5055693;28;20028;-73
2021/03/08 09:22:25;;;;;;;7.72;1.55;;;5.60;99.30;;;;;;5053014;28;20094;-70
2021/03/08 09:24:55;;;;;;;4.03;1.55;;;5.80;99.90;;;;;;5053366;28;20036;-70
2021/03/08 09:27:25;;;;;;;2.35;1.17;;;6.00;99.10;;;;;;5054963;28;20531;-70
2021/03/08 09:29:52;;;;;;;3.88;1.10;;;6.30;97.60;;;;;;5057903;28;20038;-72
2021/03/08 09:32:18;;;;;;;5.90;1.25;;;6.50;97.10;;;;;;5057309;28;20033;-71
2021/03/08 09:34:44;;;;;;;3.65;1.05;;;6.70;96.80;;;;;;5052868;28;20039;-71
2021/03/08 09:37:11;;;;;;;3.33;0.88;;;6.20;95.40;;;;;;5056599;28;20044;-73
2021/03/08 09:39:55;;;;;;;3.38;1.00;;;6.40;96.50;;;;;;5054596;28;20032;-71
2021/03/08 09:42:21;;;;;;;4.70;1.05;;;6.50;93.80;;;;;;5056986;28;20147;-71
2021/03/08 09:44:48;;;;;;;2.45;1.10;;;6.40;89.30;;;;;;5055297;28;20036;-72
2021/03/08 09:47:15;;;;;;;6.05;0.90;;;6.40;91.40;;;;;;5033117;28;20159;-73
2021/03/08 09:49:52;;;;;;;3.47;0.85;;;6.30;91.90;;;;;;5057434;28;20036;-73
2021/03/08 09:52:40;;;;;;;2.25;1.10;;;6.40;87.80;;;;;;5057236;28;20108;-73
2021/03/08 09:55:09;;;;;;;1.52;0.80;;;6.20;92.00;;;;;;5052427;28;20746;-73
2021/03/08 09:57:36;;;;;;;6.53;1.10;;;6.50;89.70;;;;;;5055227;28;20538;-73
2021/03/08 10:00:14;;;;;;;3.50;0.80;;;6.80;75.90;;;;;;5034349;28;20721;-73
2021/03/08 10:02:40;;;;;;;2.70;0.82;;;6.80;75.10;;;;;;5049554;28;20083;-73
2021/03/08 10:05:08;;;;;;;6.13;0.90;;;6.80;73.30;;;;;;5043471;28;20483;-73
2021/03/08 10:07:34;;;;;;;4.50;0.98;;;7.00;80.50;;;;;;5034388;28;20078;-73
2021/03/08 10:10:15;;;;;;;1.50;0.70;;;7.10;68.80;;;;;;5057301;28;20036;-73
2021/03/08 10:12:42;;;;;;;1.50;0.85;;;6.60;66.10;;;;;;5051579;28;20128;-72
2021/03/08 10:15:10;;;;;;;2.35;0.70;;;6.40;66.40;;;;;;5049947;28;20081;-73
2021/03/08 10:17:52;;;;;;;2.63;0.82;;;6.60;69.90;;;;;;5039825;28;20039;-73
2021/03/08 10:20:18;;;;;;;4.85;1.20;;;7.00;72.30;;;;;;5036174;28;20044;-71
2021/03/08 10:22:43;;;;;;;2.45;0.75;;;7.10;64.10;;;;;;5055671;28;20085;-72
2021/03/08 10:25:26;;;;;;;1.42;0.80;;;7.50;61.20;;;;;;5057069;28;20127;-72
2021/03/08 10:27:56;;;;;;;3.13;0.82;;;7.30;62.30;;;;;;5031132;28;20560;-72
2021/03/08 10:30:24;;;;;;;2.47;0.63;;;7.20;63.40;;;;;;5054155;28;20032;-72
2021/03/08 10:32:54;;;;;;;1.50;0.47;;;7.30;62.10;;;;;;5033292;28;20041;-72
2021/03/08 10:35:21;;;;;;;1.42;0.60;;;7.20;59.30;;;;;;5035235;28;20040;-72
2021/03/08 10:37:48;;;;;;;1.55;0.80;;;7.30;59.10;;;;;;5052899;28;20039;-72
2021/03/08 10:40:17;;;;;;;1.25;0.45;;;7.40;59.10;;;;;;5056858;28;20044;-72
2021/03/08 10:42:43;;;;;;;4.22;0.70;;;7.40;55.50;;;;;;5040351;28;20037;-72
2021/03/08 10:45:10;;;;;;;1.73;0.85;;;7.30;58.60;;;;;;5054241;28;20078;-72
2021/03/08 10:47:39;;;;;;;2.15;0.80;;;7.40;57.10;;;;;;5056809;28;20025;-72
2021/03/08 10:50:07;;;;;;;2.47;0.70;;;7.60;55.50;;;;;;5033926;28;20037;-72
2021/03/08 10:52:33;;;;;;;2.60;0.85;;;7.40;57.30;;;;;;5038417;28;20037;-72
2021/03/08 10:54:59;;;;;;;2.53;1.00;;;7.40;56.80;;;;;;5038039;28;20664;-72
2021/03/08 10:57:26;;;;;;;5.65;1.20;;;7.90;54.60;;;;;;5056715;28;20032;-72
2021/03/08 10:59:56;;;;;;;1.67;0.70;;;7.80;56.60;;;;;;5034016;28;20039;-77
2021/03/08 11:02:23;;;;;;;17.65;10.68;;;8.10;55.80;;;;;;5053859;28;20123;-76
2021/03/08 11:04:52;;;;;;;1.17;0.77;;;8.10;55.60;;;;;;5038969;28;20036;-76
2021/03/08 11:07:31;;;;;;;2.63;0.80;;;8.10;54.70;;;;;;5043804;28;20128;-76
2021/03/08 11:09:57;;;;;;;3.10;1.80;;;7.90;54.10;;;;;;5039342;28;20152;-76
2021/03/08 11:12:24;;;;;;;1.50;0.70;;;8.10;56.10;;;;;;5033620;28;20119;-74
2021/03/08 11:14:54;;;;;;;4.35;1.63;;;8.20;50.90;;;;;;5037798;28;20036;-74
2021/03/08 11:17:31;;;;;;;3.35;0.80;;;8.00;54.90;;;;;;5041768;28;20243;-74
2021/03/08 11:20:07;;;;;;;2.83;0.80;;;8.00;52.20;;;;;;5042478;28;20037;-74
2021/03/08 11:22:51;;;;;;;1.88;1.25;;;7.90;53.80;;;;;;5057307;28;20073;-74
2021/03/08 11:25:29;;;;;;;8.38;1.08;;;7.90;53.40;;;;;;5038241;28;20043;-74
2021/03/08 11:27:56;;;;;;;6.13;0.93;;;7.70;53.70;;;;;;5035198;28;20028;-73
2021/03/08 11:30:23;;;;;;;2.55;1.00;;;7.40;53.90;;;;;;5047798;28;20076;-72
2021/03/08 11:32:57;;;;;;;2.22;0.65;;;7.10;55.70;;;;;;5038694;28;20028;-72
2021/03/08 11:35:28;;;;;;;3.10;1.02;;;7.70;52.70;;;;;;5050577;28;20036;-73
2021/03/08 11:37:57;;;;;;;2.85;0.80;;;8.10;53.50;;;;;;5052969;28;20044;-73
2021/03/08 11:40:25;;;;;;;5.35;0.80;;;8.10;50.10;;;;;;5037775;28;20039;-73
2021/03/08 11:42:51;;;;;;;2.13;0.70;;;7.90;50.40;;;;;;5033954;28;20051;-74
2021/03/08 11:45:18;;;;;;;2.75;0.70;;;7.30;48.80;;;;;;5044897;28;20052;-74
2021/03/08 11:47:44;;;;;;;3.00;1.02;;;7.50;52.00;;;;;;5021865;28;20086;-75
2021/03/08 11:50:12;;;;;;;5.38;1.15;;;8.00;51.20;;;;;;5042664;28;20059;-75
2021/03/08 11:52:38;;;;;;;1.92;0.80;;;8.50;54.10;;;;;;5052484;28;20032;-75
2021/03/08 11:55:04;;;;;;;3.13;1.05;;;8.80;50.00;;;;;;5052509;28;20075;-74
2021/03/08 11:57:30;;;;;;;2.20;0.90;;;9.20;48.20;;;;;;5053200;28;20045;-73
2021/03/08 11:59:55;;;;;;;2.60;0.80;;;9.00;49.80;;;;;;5054665;28;20032;-73
2021/03/08 12:02:21;;;;;;;1.40;0.80;;;9.30;47.50;;;;;;5031444;28;20040;-74
2021/03/08 12:04:47;;;;;;;1.40;0.60;;;9.40;48.80;;;;;;5053749;28;20040;-76
2021/03/08 12:07:13;;;;;;;4.93;0.93;;;9.70;48.70;;;;;;5038779;28;20075;-69
2021/03/08 12:09:39;;;;;;;2.25;0.90;;;10.40;45.90;;;;;;5037069;28;20032;-69
2021/03/08 12:12:05;;;;;;;4.40;0.80;;;10.60;45.90;;;;;;5055483;28;20132;-69
2021/03/08 12:14:30;;;;;;;3.42;0.70;;;11.10;45.30;;;;;;5055790;28;20047;-69
2021/03/08 12:16:56;;;;;;;7.00;0.70;;;11.30;45.10;;;;;;5055631;28;20029;-69
2021/03/08 12:19:22;;;;;;;3.88;1.00;;;11.40;44.90;;;;;;5041599;28;20151;-69
2021/03/08 12:21:48;;;;;;;2.88;0.73;;;12.20;41.50;;;;;;5041195;28;20147;-69
2021/03/08 12:24:14;;;;;;;2.15;0.90;;;12.50;41.80;;;;;;5054363;28;20041;-74
2021/03/08 12:26:40;;;;;;;4.20;0.80;;;12.10;42.40;;;;;;5040864;28;20048;-74
2021/03/08 12:29:06;;;;;;;2.38;0.70;;;12.30;40.60;;;;;;5054513;28;20755;-74
2021/03/08 12:31:32;;;;;;;2.17;0.77;;;12.00;41.80;;;;;;5051789;28;20536;-74
2021/03/08 12:33:57;;;;;;;2.70;0.98;;;12.60;40.20;;;;;;5047062;28;20103;-74
2021/03/08 12:36:23;;;;;;;3.20;0.77;;;13.00;41.30;;;;;;5057224;28;20575;-76
2021/03/08 12:38:49;;;;;;;2.17;0.80;;;13.10;42.00;;;;;;5059616;28;20436;-74
2021/03/08 12:41:15;;;;;;;1.90;0.68;;;12.90;39.50;;;;;;5051515;28;20115;-74
2021/03/08 12:43:41;;;;;;;2.08;0.80;;;12.90;40.80;;;;;;5032092;28;20570;-74
2021/03/08 12:46:07;;;;;;;3.42;1.00;;;12.50;41.20;;;;;;5055783;28;20024;-74
2021/03/08 12:48:33;;;;;;;3.53;0.80;;;13.30;38.80;;;;;;5025200;28;20036;-74
2021/03/08 12:50:59;;;;;;;2.10;0.80;;;13.30;38.80;;;;;;5033759;28;20047;-72
2021/03/08 12:53:25;;;;;;;6.30;0.90;;;13.60;38.50;;;;;;5053479;28;20141;-73
2021/03/08 12:55:51;;;;;;;2.25;0.80;;;13.60;39.90;;;;;;5054879;28;20039;-73
2021/03/08 12:58:17;;;;;;;4.10;1.10;;;13.90;38.20;;;;;;5041638;28;20032;-72
2021/03/08 13:00:43;;;;;;;4.38;0.75;;;13.80;38.00;;;;;;5059547;28;20116;-72
2021/03/08 13:03:09;;;;;;;2.67;0.80;;;13.00;37.60;;;;;;5042683;28;20995;-72
2021/03/08 13:05:34;;;;;;;4.88;0.80;;;13.00;37.20;;;;;;5052540;28;20525;-72